Time;durP1;ratioP1;P1;durP2;ratioP2;P2;SDS_P1;SDS_P2;PMS_P1;PMS_P2;Temp;Humidity;BMP_temperature;BMP_pressure;BME280_temperature;BME280_humidity;BME280_pressure;Samples;Min_cycle;Max_cycle;Signal;HPM_P1;HPM_P2
2021/02/28 00:05:02;;;;;;;36.6;28.4;;;;;;;2.85;100;100561.1;;;;
2021/02/28 00:14:59;;;;;;;33.5;28.1;;;;;;;2.91;100;100565.6;;;;
2021/02/28 00:24:57;;;;;;;43.2;31;;;;;;;2.87;100;100559.9;;;;
2021/02/28 00:34:55;;;;;;;58.3;31.8;;;;;;;2.86;100;100550.2;;;;
2021/02/28 00:44:53;;;;;;;40.6;31.1;;;;;;;2.89;100;100549;;;;
2021/02/28 00:54:51;;;;;;;32.7;29.3;;;;;;;2.83;100;100547.2;;;;
2021/02/28 01:04:49;;;;;;;44.8;30;;;;;;;2.82;100;100545.5;;;;
2021/02/28 01:14:47;;;;;;;44.3;31.7;;;;;;;2.81;100;100544.7;;;;
2021/02/28 01:24:45;;;;;;;40.1;29.4;;;;;;;2.78;100;100550.5;;;;
2021/02/28 01:34:43;;;;;;;36.7;28.3;;;;;;;2.68;100;100538.6;;;;
2021/02/28 01:44:41;;;;;;;30.6;23;;;;;;;2.63;100;100531.3;;;;
2021/02/28 01:54:38;;;;;;;47.3;29.2;;;;;;;2.58;100;100536.4;;;;
2021/02/28 02:04:36;;;;;;;37.3;32.9;;;;;;;2.56;100;100538.4;;;;
2021/02/28 02:14:35;;;;;;;43.1;26.4;;;;;;;2.53;100;100536.2;;;;
2021/02/28 02:24:35;;;;;;;40.8;31.7;;;;;;;2.44;100;100537.4;;;;
2021/02/28 02:34:30;;;;;;;39.5;32.1;;;;;;;2.26;100;100527.4;;;;
2021/02/28 02:44:27;;;;;;;38;27.5;;;;;;;2.34;100;100521.1;;;;
2021/02/28 02:54:25;;;;;;;37.6;27.2;;;;;;;2.24;100;100524.1;;;;
2021/02/28 03:04:23;;;;;;;30.3;25.4;;;;;;;2.16;100;100518.2;;;;
2021/02/28 03:14:21;;;;;;;37.5;26.2;;;;;;;2.12;100;100519.7;;;;
2021/02/28 03:24:19;;;;;;;44.1;30.5;;;;;;;1.9;100;100517.2;;;;
2021/02/28 03:34:16;;;;;;;38.1;27.4;;;;;;;1.78;100;100504.7;;;;
2021/02/28 03:44:14;;;;;;;38.5;26;;;;;;;1.91;100;100496.7;;;;
2021/02/28 03:54:12;;;;;;;34;25.3;;;;;;;1.87;100;100488.4;;;;
2021/02/28 04:04:10;;;;;;;34.2;26.4;;;;;;;1.51;100;100480.8;;;;
2021/02/28 04:14:07;;;;;;;33.9;24.5;;;;;;;1.41;100;100477.7;;;;
2021/02/28 04:24:05;;;;;;;27.2;24.2;;;;;;;1.24;100;100480.9;;;;
2021/02/28 04:34:04;;;;;;;33.2;23.9;;;;;;;1.06;100;100486;;;;
2021/02/28 04:44:00;;;;;;;34.8;25.5;;;;;;;1.11;100;100471.1;;;;
2021/02/28 04:53:58;;;;;;;34.3;26;;;;;;;1.21;100;100478.7;;;;
2021/02/28 05:03:56;;;;;;;32.8;26.6;;;;;;;1.2;100;100477.8;;;;
2021/02/28 05:13:53;;;;;;;24.2;19.6;;;;;;;0.99;100;100473.5;;;;
2021/02/28 05:23:51;;;;;;;31.5;25.2;;;;;;;0.82;100;100466.9;;;;
2021/02/28 05:33:49;;;;;;;24.2;19;;;;;;;0.6;100;100477.8;;;;
2021/02/28 05:43:46;;;;;;;21.3;16.6;;;;;;;0.49;100;100493.3;;;;
2021/02/28 05:53:44;;;;;;;24.7;17.5;;;;;;;0.61;100;100506.8;;;;
2021/02/28 06:03:41;;;;;;;26.2;19;;;;;;;0.74;100;100525.4;;;;
2021/02/28 06:13:39;;;;;;;29.7;21.3;;;;;;;0.98;100;100527.6;;;;
2021/02/28 06:23:37;;;;;;;29.9;23.4;;;;;;;1.2;100;100546.1;;;;
2021/02/28 06:33:34;;;;;;;31.3;23.7;;;;;;;1.33;100;100559.4;;;;
2021/02/28 06:43:32;;;;;;;29.1;22;;;;;;;1.44;100;100535.7;;;;
2021/02/28 06:53:29;;;;;;;25.9;19.2;;;;;;;1.75;100;100513.9;;;;
2021/02/28 07:03:27;;;;;;;25.5;18.5;;;;;;;1.89;100;100510.2;;;;
2021/02/28 07:13:25;;;;;;;25.2;19.2;;;;;;;1.93;100;100516;;;;
2021/02/28 07:23:23;;;;;;;31.6;19.5;;;;;;;1.97;100;100541.1;;;;
2021/02/28 07:33:21;;;;;;;25.6;18.3;;;;;;;2.07;100;100527.4;;;;
2021/02/28 07:43:18;;;;;;;35.5;18;;;;;;;2.39;100;100543.4;;;;
2021/02/28 07:53:16;;;;;;;21.9;18.9;;;;;;;2.6;100;100531.7;;;;
2021/02/28 08:03:23;;;;;;;31.2;24.4;;;;;;;2.59;99.26465;100532.7;;;;
2021/02/28 08:13:18;;;;;;;28.1;22.3;;;;;;;3.22;98.92578;100520.4;;;;
2021/02/28 08:23:22;;;;;;;26.9;22;;;;;;;3.45;93.15332;100528.7;;;;
2021/02/28 08:33:08;;;;;;;26.6;16.5;;;;;;;3.07;88.91699;100514.5;;;;
2021/02/28 08:43:15;;;;;;;29.9;21;;;;;;;3.66;87.34668;100486.7;;;;
2021/02/28 08:53:04;;;;;;;32;23.4;;;;;;;3.44;88.58594;100513.7;;;;
2021/02/28 09:03:08;;;;;;;33.4;28.8;;;;;;;3.36;89.77441;100507.8;;;;
2021/02/28 09:13:00;;;;;;;34.6;24.7;;;;;;;3.25;88.75684;100522.6;;;;
2021/02/28 09:22:59;;;;;;;30.2;23;;;;;;;3.18;88.41113;100527.2;;;;
2021/02/28 09:32:56;;;;;;;29.6;23;;;;;;;3.28;89.4043;100532;;;;
2021/02/28 09:42:54;;;;;;;23.8;18.7;;;;;;;3.28;87.71289;100530.2;;;;
2021/02/28 09:52:52;;;;;;;20.7;15.9;;;;;;;3.64;86.96777;100502.9;;;;
2021/02/28 10:02:50;;;;;;;29.5;15.7;;;;;;;3.74;85.80273;100511.3;;;;
2021/02/28 10:12:48;;;;;;;21.5;16.4;;;;;;;4.23;84.53516;100523;;;;
2021/02/28 10:22:46;;;;;;;23.9;18.1;;;;;;;4.58;84.32813;100524.1;;;;
2021/02/28 10:32:44;;;;;;;23.5;17.8;;;;;;;4.73;83.44531;100513.1;;;;
2021/02/28 10:42:43;;;;;;;23.5;15.2;;;;;;;4.61;82.06738;100510.3;;;;
2021/02/28 10:52:41;;;;;;;28;21.3;;;;;;;5.01;81.08691;100482.1;;;;
2021/02/28 11:02:39;;;;;;;25.1;19.9;;;;;;;4.9;82.04395;100466;;;;
2021/02/28 11:12:37;;;;;;;27.7;18.5;;;;;;;5.2;80.29688;100436.6;;;;
2021/02/28 11:22:36;;;;;;;24.4;17.3;;;;;;;5.34;81.48145;100435.4;;;;
2021/02/28 11:32:34;;;;;;;18.1;15.6;;;;;;;5.46;79.07715;100436.3;;;;
2021/02/28 11:42:32;;;;;;;28.7;20.3;;;;;;;5.47;79.25879;100406.6;;;;
2021/02/28 11:52:31;;;;;;;20.7;16.4;;;;;;;5.23;78.36426;100390.8;;;;
2021/02/28 12:02:31;;;;;;;19.4;17.3;;;;;;;6.15;77.21387;100367.8;;;;
2021/02/28 12:12:27;;;;;;;22;16.5;;;;;;;5.71;77.14844;100367.3;;;;
2021/02/28 12:22:26;;;;;;;27.4;17.9;;;;;;;5.93;75.59277;100349.7;;;;
2021/02/28 12:32:24;;;;;;;18;13.7;;;;;;;6.03;75.01855;100341.9;;;;
2021/02/28 12:42:24;;;;;;;23.1;17.3;;;;;;;6.26;75.32422;100321.5;;;;
2021/02/28 12:52:21;;;;;;;25.9;18.2;;;;;;;6.1;75.79883;100290.1;;;;
2021/02/28 13:02:19;;;;;;;25.9;18.4;;;;;;;6.37;74.66211;100280.5;;;;
2021/02/28 13:12:18;;;;;;;23.6;18.1;;;;;;;6.17;74.1582;100246.1;;;;
2021/02/28 13:22:16;;;;;;;21.3;16.7;;;;;;;6.45;73.62695;100251.4;;;;
2021/02/28 13:32:16;;;;;;;26.7;15.1;;;;;;;6.15;73.47266;100234.8;;;;
2021/02/28 13:42:13;;;;;;;21.6;17.6;;;;;;;6.42;73.27246;100227;;;;
2021/02/28 13:52:11;;;;;;;18;15.4;;;;;;;6.5;72.42578;100219.4;;;;
2021/02/28 14:02:09;;;;;;;18.8;15.2;;;;;;;6.6;71.09863;100221.4;;;;
2021/02/28 14:12:08;;;;;;;18.8;15.5;;;;;;;6.71;71.51953;100212.5;;;;
2021/02/28 14:22:06;;;;;;;26.5;20.7;;;;;;;6.65;71.62109;100202.8;;;;
2021/02/28 14:32:05;;;;;;;23.8;17.8;;;;;;;6.69;71.81738;100197.7;;;;
2021/02/28 14:42:06;;;;;;;29;21.9;;;;;;;6.82;72.17578;100213.5;;;;
2021/02/28 14:52:02;;;;;;;30.7;19.1;;;;;;;6.65;72.51563;100202;;;;
2021/02/28 15:02:00;;;;;;;25.3;17.3;;;;;;;6.43;72.85059;100207.2;;;;
2021/02/28 15:11:58;;;;;;;18.1;15.9;;;;;;;6.43;73.28613;100204.5;;;;
2021/02/28 15:21:56;;;;;;;23.9;15.3;;;;;;;6.26;73.59277;100209.8;;;;
2021/02/28 15:31:55;;;;;;;22.2;14.7;;;;;;;5.95;74.8584;100204.9;;;;
2021/02/28 15:41:53;;;;;;;19;17;;;;;;;5.76;75.68359;100198.1;;;;
2021/02/28 15:51:51;;;;;;;21;17.2;;;;;;;5.49;76.5957;100184.4;;;;
2021/02/28 16:01:50;;;;;;;27.1;19.5;;;;;;;5.17;77.71973;100172.5;;;;
2021/02/28 16:11:48;;;;;;;24;19.8;;;;;;;4.93;78.69141;100147.6;;;;
2021/02/28 16:21:46;;;;;;;28.2;20.3;;;;;;;4.66;79.85449;100166;;;;
2021/02/28 16:31:44;;;;;;;32.3;23.9;;;;;;;4.27;81.3916;100155.9;;;;
2021/02/28 16:41:42;;;;;;;27.7;22.6;;;;;;;4.03;81.7793;100144.3;;;;
2021/02/28 16:51:40;;;;;;;25.3;21;;;;;;;3.83;82.71777;100144.6;;;;
2021/02/28 17:01:38;;;;;;;30.5;22.8;;;;;;;3.71;82.95996;100162.4;;;;
2021/02/28 17:11:36;;;;;;;29.4;19.1;;;;;;;3.51;83.56445;100164.5;;;;
2021/02/28 17:21:34;;;;;;;26.1;17.8;;;;;;;3.32;84.25684;100154.9;;;;
2021/02/28 17:31:32;;;;;;;23.1;19.5;;;;;;;3.1;85.12012;100148.3;;;;
2021/02/28 17:41:30;;;;;;;23.2;18.3;;;;;;;2.84;86.06543;100147.6;;;;
2021/02/28 17:51:28;;;;;;;27.8;22.2;;;;;;;2.64;86.82129;100131;;;;
2021/02/28 18:01:26;;;;;;;33.3;21;;;;;;;2.54;87.37598;100115.5;;;;
2021/02/28 18:11:24;;;;;;;21;18.4;;;;;;;2.47;87.73633;100128;;;;
2021/02/28 18:21:22;;;;;;;38.2;25.6;;;;;;;2.62;87.5332;100126.9;;;;
2021/02/28 18:31:19;;;;;;;34.8;26.5;;;;;;;2.9;86.37598;100136.1;;;;
2021/02/28 18:41:17;;;;;;;38.1;24.9;;;;;;;3.07;85.5459;100148.8;;;;
2021/02/28 18:51:15;;;;;;;39.8;27.9;;;;;;;3.18;85.42383;100145.4;;;;
2021/02/28 19:01:13;;;;;;;47.9;36.3;;;;;;;3.42;84.53125;100147.2;;;;
2021/02/28 19:11:11;;;;;;;43.6;33.5;;;;;;;3.61;83.91406;100158.7;;;;
2021/02/28 19:21:09;;;;;;;45.8;31.6;;;;;;;3.65;83.8457;100167.8;;;;
2021/02/28 19:31:07;;;;;;;43.5;33.4;;;;;;;3.46;84.56348;100175.8;;;;
2021/02/28 19:41:05;;;;;;;45.2;36.6;;;;;;;3.29;85.40234;100169.5;;;;
2021/02/28 19:51:06;;;;;;;52.1;38.6;;;;;;;3.16;86.32715;100168.8;;;;
2021/02/28 20:01:01;;;;;;;51.7;38.2;;;;;;;3;87.12598;100157.7;;;;
2021/02/28 20:10:59;;;;;;;56.2;40.1;;;;;;;2.96;88.00195;100172.5;;;;
2021/02/28 20:20:57;;;;;;;53.1;41.6;;;;;;;3.05;88.01855;100162.3;;;;
2021/02/28 20:30:55;;;;;;;47;37.4;;;;;;;3.1;88.21582;100143;;;;
2021/02/28 20:40:53;;;;;;;42.9;36;;;;;;;3.26;88.0498;100163.8;;;;
2021/02/28 20:50:51;;;;;;;43.2;29.3;;;;;;;3.49;87.93164;100161.3;;;;
2021/02/28 21:00:49;;;;;;;41.4;30.6;;;;;;;3.71;87.93262;100186.4;;;;
2021/02/28 21:10:47;;;;;;;42.4;30;;;;;;;3.88;87.86719;100184;;;;
2021/02/28 21:20:45;;;;;;;38;28.3;;;;;;;4.07;87.51855;100201.5;;;;
2021/02/28 21:30:45;;;;;;;40.1;27;;;;;;;4.18;87.41797;100216;;;;
2021/02/28 21:40:41;;;;;;;30.9;25.9;;;;;;;4.24;87.07617;100217.7;;;;
2021/02/28 21:50:40;;;;;;;39;31.1;;;;;;;4.25;87.15723;100233.5;;;;
2021/02/28 22:00:38;;;;;;;46;28.8;;;;;;;4.29;87.25293;100228.6;;;;
2021/02/28 22:10:36;;;;;;;43.2;32.3;;;;;;;4.28;87.27344;100218.9;;;;
2021/02/28 22:20:34;;;;;;;42.4;31.8;;;;;;;4.31;87.45605;100229.1;;;;
2021/02/28 22:30:32;;;;;;;38.4;29.9;;;;;;;4.29;87.69629;100225.9;;;;
2021/02/28 22:40:31;;;;;;;48;34;;;;;;;4.27;87.98047;100234.1;;;;
2021/02/28 22:50:29;;;;;;;39.9;31.9;;;;;;;4.28;88.10449;100232.3;;;;
2021/02/28 23:00:27;;;;;;;48.8;30.4;;;;;;;4.33;88.02734;100232.4;;;;
2021/02/28 23:10:25;;;;;;;41.5;31.3;;;;;;;4.32;87.99219;100239.6;;;;
2021/02/28 23:20:23;;;;;;;46.1;34.1;;;;;;;4.32;88.34473;100225.4;;;;
2021/02/28 23:30:21;;;;;;;39.1;30.2;;;;;;;4.37;88.43359;100209.6;;;;
2021/02/28 23:40:20;;;;;;;43.7;34.5;;;;;;;4.31;88.83008;100215.8;;;;
2021/02/28 23:50:18;;;;;;;43;33.2;;;;;;;4.27;89.27734;100202.1;;;;
